sensor_id;sensor_type;location;lat;lon;timestamp;P1;durP1;ratioP1;P2;durP2;ratioP2
38940;SDS011;43236;47.208;7.518;2023-12-14T00:00:53;2.35;;;1.60;;
38940;SDS011;43236;47.208;7.518;2023-12-14T00:03:40;1.45;;;1.35;;
38940;SDS011;43236;47.208;7.518;2023-12-14T00:06:29;2.40;;;1.77;;
38940;SDS011;43236;47.208;7.518;2023-12-14T00:09:16;1.70;;;1.50;;
38940;SDS011;43236;47.208;7.518;2023-12-14T00:12:05;2.00;;;1.83;;
38940;SDS011;43236;47.208;7.518;2023-12-14T00:14:52;2.13;;;1.30;;
38940;SDS011;43236;47.208;7.518;2023-12-14T00:17:39;1.63;;;1.35;;
38940;SDS011;43236;47.208;7.518;2023-12-14T00:20:26;1.55;;;1.40;;
38940;SDS011;43236;47.208;7.518;2023-12-14T00:23:13;2.80;;;1.60;;
38940;SDS011;43236;47.208;7.518;2023-12-14T00:26:00;1.45;;;1.35;;
38940;SDS011;43236;47.208;7.518;2023-12-14T00:28:49;1.58;;;1.13;;
38940;SDS011;43236;47.208;7.518;2023-12-14T00:31:36;1.73;;;1.58;;
38940;SDS011;43236;47.208;7.518;2023-12-14T00:34:23;2.88;;;1.55;;
38940;SDS011;43236;47.208;7.518;2023-12-14T00:37:10;2.47;;;2.08;;
38940;SDS011;43236;47.208;7.518;2023-12-14T00:39:57;2.65;;;1.50;;
38940;SDS011;43236;47.208;7.518;2023-12-14T00:42:44;2.78;;;1.80;;
38940;SDS011;43236;47.208;7.518;2023-12-14T00:45:32;5.20;;;2.33;;
38940;SDS011;43236;47.208;7.518;2023-12-14T00:48:19;1.73;;;1.50;;
38940;SDS011;43236;47.208;7.518;2023-12-14T00:51:06;2.47;;;1.85;;
38940;SDS011;43236;47.208;7.518;2023-12-14T00:53:53;2.15;;;1.95;;
38940;SDS011;43236;47.208;7.518;2023-12-14T00:56:40;4.10;;;2.55;;
38940;SDS011;43236;47.208;7.518;2023-12-14T00:59:28;4.90;;;1.77;;
38940;SDS011;43236;47.208;7.518;2023-12-14T01:02:17;2.22;;;1.80;;
38940;SDS011;43236;47.208;7.518;2023-12-14T01:05:04;2.90;;;2.10;;
38940;SDS011;43236;47.208;7.518;2023-12-14T01:07:51;1.33;;;1.23;;
38940;SDS011;43236;47.208;7.518;2023-12-14T01:10:38;1.40;;;1.30;;
38940;SDS011;43236;47.208;7.518;2023-12-14T01:13:25;2.17;;;1.98;;
38940;SDS011;43236;47.208;7.518;2023-12-14T01:16:13;4.80;;;2.10;;
38940;SDS011;43236;47.208;7.518;2023-12-14T01:19:01;4.45;;;2.70;;
38940;SDS011;43236;47.208;7.518;2023-12-14T01:21:50;3.10;;;2.05;;
38940;SDS011;43236;47.208;7.518;2023-12-14T01:24:37;1.65;;;1.55;;
38940;SDS011;43236;47.208;7.518;2023-12-14T01:27:24;1.92;;;1.75;;
38940;SDS011;43236;47.208;7.518;2023-12-14T01:30:12;1.98;;;1.70;;
38940;SDS011;43236;47.208;7.518;2023-12-14T01:32:59;1.92;;;1.50;;
38940;SDS011;43236;47.208;7.518;2023-12-14T01:35:47;0.90;;;0.90;;
38940;SDS011;43236;47.208;7.518;2023-12-14T01:38:34;0.77;;;0.77;;
38940;SDS011;43236;47.208;7.518;2023-12-14T01:41:21;1.02;;;0.90;;
38940;SDS011;43236;47.208;7.518;2023-12-14T01:44:08;4.05;;;1.10;;
38940;SDS011;43236;47.208;7.518;2023-12-14T01:46:55;1.08;;;0.98;;
38940;SDS011;43236;47.208;7.518;2023-12-14T01:49:42;1.17;;;1.10;;
38940;SDS011;43236;47.208;7.518;2023-12-14T01:52:31;1.15;;;1.05;;
38940;SDS011;43236;47.208;7.518;2023-12-14T01:55:18;1.42;;;1.02;;
38940;SDS011;43236;47.208;7.518;2023-12-14T01:58:05;0.88;;;0.88;;
38940;SDS011;43236;47.208;7.518;2023-12-14T02:00:53;0.95;;;0.90;;
38940;SDS011;43236;47.208;7.518;2023-12-14T02:03:47;1.05;;;1.00;;
38940;SDS011;43236;47.208;7.518;2023-12-14T02:06:37;1.67;;;1.50;;
38940;SDS011;43236;47.208;7.518;2023-12-14T02:09:26;1.55;;;1.40;;
38940;SDS011;43236;47.208;7.518;2023-12-14T02:12:13;1.40;;;1.30;;
38940;SDS011;43236;47.208;7.518;2023-12-14T02:15:00;4.57;;;1.48;;
38940;SDS011;43236;47.208;7.518;2023-12-14T02:17:47;6.65;;;1.90;;
38940;SDS011;43236;47.208;7.518;2023-12-14T02:20:34;4.18;;;1.75;;
38940;SDS011;43236;47.208;7.518;2023-12-14T02:23:23;3.17;;;2.30;;
38940;SDS011;43236;47.208;7.518;2023-12-14T02:26:10;3.20;;;1.50;;
38940;SDS011;43236;47.208;7.518;2023-12-14T02:28:57;1.15;;;1.05;;
38940;SDS011;43236;47.208;7.518;2023-12-14T02:31:44;1.10;;;1.02;;
38940;SDS011;43236;47.208;7.518;2023-12-14T02:34:33;1.85;;;1.40;;
38940;SDS011;43236;47.208;7.518;2023-12-14T02:37:20;2.08;;;1.52;;
38940;SDS011;43236;47.208;7.518;2023-12-14T02:40:08;2.58;;;1.75;;
38940;SDS011;43236;47.208;7.518;2023-12-14T02:42:56;2.90;;;1.98;;
38940;SDS011;43236;47.208;7.518;2023-12-14T02:45:43;3.00;;;1.25;;
38940;SDS011;43236;47.208;7.518;2023-12-14T02:48:30;2.88;;;1.45;;
38940;SDS011;43236;47.208;7.518;2023-12-14T02:51:17;2.90;;;2.13;;
38940;SDS011;43236;47.208;7.518;2023-12-14T02:54:06;1.95;;;1.67;;
38940;SDS011;43236;47.208;7.518;2023-12-14T02:56:54;3.22;;;1.85;;
38940;SDS011;43236;47.208;7.518;2023-12-14T02:59:41;3.38;;;1.67;;
38940;SDS011;43236;47.208;7.518;2023-12-14T03:02:28;2.97;;;2.70;;
38940;SDS011;43236;47.208;7.518;2023-12-14T03:05:16;2.95;;;1.67;;
38940;SDS011;43236;47.208;7.518;2023-12-14T03:08:03;2.22;;;1.90;;
38940;SDS011;43236;47.208;7.518;2023-12-14T03:10:50;4.65;;;2.28;;
38940;SDS011;43236;47.208;7.518;2023-12-14T03:13:38;2.30;;;1.95;;
38940;SDS011;43236;47.208;7.518;2023-12-14T03:16:25;4.60;;;2.03;;
38940;SDS011;43236;47.208;7.518;2023-12-14T03:19:13;2.78;;;2.40;;
38940;SDS011;43236;47.208;7.518;2023-12-14T03:22:00;3.60;;;2.60;;
38940;SDS011;43236;47.208;7.518;2023-12-14T03:24:48;4.60;;;2.78;;
38940;SDS011;43236;47.208;7.518;2023-12-14T03:27:35;3.85;;;3.03;;
38940;SDS011;43236;47.208;7.518;2023-12-14T03:30:24;3.40;;;1.85;;
38940;SDS011;43236;47.208;7.518;2023-12-14T03:33:12;3.38;;;2.63;;
38940;SDS011;43236;47.208;7.518;2023-12-14T03:35:59;1.60;;;1.50;;
38940;SDS011;43236;47.208;7.518;2023-12-14T03:38:47;3.38;;;2.20;;
38940;SDS011;43236;47.208;7.518;2023-12-14T03:41:34;2.08;;;1.80;;
38940;SDS011;43236;47.208;7.518;2023-12-14T03:44:21;2.05;;;1.50;;
38940;SDS011;43236;47.208;7.518;2023-12-14T03:47:10;1.10;;;1.00;;
38940;SDS011;43236;47.208;7.518;2023-12-14T03:49:57;1.10;;;1.02;;
38940;SDS011;43236;47.208;7.518;2023-12-14T03:52:44;2.30;;;1.48;;
38940;SDS011;43236;47.208;7.518;2023-12-14T03:55:32;1.25;;;0.98;;
38940;SDS011;43236;47.208;7.518;2023-12-14T03:58:19;1.55;;;1.33;;
38940;SDS011;43236;47.208;7.518;2023-12-14T04:01:06;1.92;;;1.23;;
38940;SDS011;43236;47.208;7.518;2023-12-14T04:03:54;1.20;;;0.95;;
38940;SDS011;43236;47.208;7.518;2023-12-14T04:06:41;1.20;;;1.10;;
38940;SDS011;43236;47.208;7.518;2023-12-14T04:09:28;1.08;;;0.95;;
38940;SDS011;43236;47.208;7.518;2023-12-14T04:12:15;1.95;;;1.20;;
38940;SDS011;43236;47.208;7.518;2023-12-14T04:15:03;1.67;;;1.25;;
38940;SDS011;43236;47.208;7.518;2023-12-14T04:17:50;1.00;;;0.90;;
38940;SDS011;43236;47.208;7.518;2023-12-14T04:20:39;1.63;;;1.17;;
38940;SDS011;43236;47.208;7.518;2023-12-14T04:23:26;1.58;;;0.90;;
38940;SDS011;43236;47.208;7.518;2023-12-14T04:26:13;3.50;;;0.80;;
38940;SDS011;43236;47.208;7.518;2023-12-14T04:29:00;1.38;;;0.75;;
38940;SDS011;43236;47.208;7.518;2023-12-14T04:31:47;3.40;;;1.45;;
38940;SDS011;43236;47.208;7.518;2023-12-14T04:34:34;0.50;;;0.50;;
38940;SDS011;43236;47.208;7.518;2023-12-14T04:37:23;0.73;;;0.65;;
38940;SDS011;43236;47.208;7.518;2023-12-14T04:40:10;1.92;;;1.00;;
38940;SDS011;43236;47.208;7.518;2023-12-14T04:42:58;0.98;;;0.88;;
38940;SDS011;43236;47.208;7.518;2023-12-14T04:45:45;0.63;;;0.63;;
38940;SDS011;43236;47.208;7.518;2023-12-14T04:48:32;1.05;;;0.93;;
38940;SDS011;43236;47.208;7.518;2023-12-14T04:51:19;1.65;;;0.93;;
38940;SDS011;43236;47.208;7.518;2023-12-14T04:54:07;1.00;;;1.00;;
38940;SDS011;43236;47.208;7.518;2023-12-14T04:56:54;1.35;;;1.20;;
38940;SDS011;43236;47.208;7.518;2023-12-14T04:59:41;2.33;;;1.00;;
38940;SDS011;43236;47.208;7.518;2023-12-14T05:02:30;4.15;;;1.50;;
38940;SDS011;43236;47.208;7.518;2023-12-14T05:05:18;1.23;;;1.13;;
38940;SDS011;43236;47.208;7.518;2023-12-14T05:08:05;1.30;;;1.00;;
38940;SDS011;43236;47.208;7.518;2023-12-14T05:10:53;1.10;;;1.00;;
38940;SDS011;43236;47.208;7.518;2023-12-14T05:13:40;1.17;;;0.90;;
38940;SDS011;43236;47.208;7.518;2023-12-14T05:16:28;1.10;;;0.90;;
38940;SDS011;43236;47.208;7.518;2023-12-14T05:19:15;1.60;;;1.15;;
38940;SDS011;43236;47.208;7.518;2023-12-14T05:22:03;1.73;;;0.95;;
38940;SDS011;43236;47.208;7.518;2023-12-14T05:24:50;0.80;;;0.80;;
38940;SDS011;43236;47.208;7.518;2023-12-14T05:27:38;0.90;;;0.90;;
38940;SDS011;43236;47.208;7.518;2023-12-14T05:30:26;1.58;;;1.02;;
38940;SDS011;43236;47.208;7.518;2023-12-14T05:33:13;0.98;;;0.90;;
38940;SDS011;43236;47.208;7.518;2023-12-14T05:36:00;1.08;;;0.98;;
38940;SDS011;43236;47.208;7.518;2023-12-14T05:38:47;0.98;;;0.98;;
38940;SDS011;43236;47.208;7.518;2023-12-14T05:41:39;0.82;;;0.82;;
38940;SDS011;43236;47.208;7.518;2023-12-14T05:44:27;1.00;;;0.90;;
38940;SDS011;43236;47.208;7.518;2023-12-14T05:47:14;0.98;;;0.95;;
38940;SDS011;43236;47.208;7.518;2023-12-14T05:50:01;0.77;;;0.77;;
38940;SDS011;43236;47.208;7.518;2023-12-14T05:52:50;2.25;;;0.90;;
38940;SDS011;43236;47.208;7.518;2023-12-14T05:55:37;0.80;;;0.80;;
38940;SDS011;43236;47.208;7.518;2023-12-14T05:58:25;0.90;;;0.90;;
38940;SDS011;43236;47.208;7.518;2023-12-14T06:01:13;1.00;;;0.80;;
38940;SDS011;43236;47.208;7.518;2023-12-14T06:04:02;1.45;;;1.00;;
38940;SDS011;43236;47.208;7.518;2023-12-14T06:06:49;0.85;;;0.77;;
38940;SDS011;43236;47.208;7.518;2023-12-14T06:09:36;1.30;;;1.20;;
38940;SDS011;43236;47.208;7.518;2023-12-14T06:12:25;1.15;;;1.08;;
38940;SDS011;43236;47.208;7.518;2023-12-14T06:15:12;1.33;;;1.25;;
38940;SDS011;43236;47.208;7.518;2023-12-14T06:18:01;1.42;;;1.25;;
38940;SDS011;43236;47.208;7.518;2023-12-14T06:20:50;2.10;;;1.33;;
38940;SDS011;43236;47.208;7.518;2023-12-14T06:23:37;2.10;;;1.50;;
38940;SDS011;43236;47.208;7.518;2023-12-14T06:26:24;2.33;;;1.40;;
38940;SDS011;43236;47.208;7.518;2023-12-14T06:29:11;3.58;;;2.38;;
38940;SDS011;43236;47.208;7.518;2023-12-14T06:31:59;1.50;;;1.02;;
38940;SDS011;43236;47.208;7.518;2023-12-14T06:34:47;3.25;;;1.15;;
38940;SDS011;43236;47.208;7.518;2023-12-14T06:37:34;1.15;;;1.08;;
38940;SDS011;43236;47.208;7.518;2023-12-14T06:40:21;1.05;;;0.98;;
38940;SDS011;43236;47.208;7.518;2023-12-14T06:43:08;0.77;;;0.77;;
38940;SDS011;43236;47.208;7.518;2023-12-14T06:45:55;1.13;;;1.02;;
38940;SDS011;43236;47.208;7.518;2023-12-14T06:48:42;2.20;;;1.90;;
38940;SDS011;43236;47.208;7.518;2023-12-14T06:51:30;2.85;;;1.90;;
38940;SDS011;43236;47.208;7.518;2023-12-14T06:54:17;1.75;;;1.38;;
38940;SDS011;43236;47.208;7.518;2023-12-14T06:57:04;1.52;;;1.30;;
38940;SDS011;43236;47.208;7.518;2023-12-14T06:59:52;1.98;;;1.10;;
38940;SDS011;43236;47.208;7.518;2023-12-14T07:02:39;1.73;;;1.38;;
38940;SDS011;43236;47.208;7.518;2023-12-14T07:05:26;1.15;;;1.08;;
38940;SDS011;43236;47.208;7.518;2023-12-14T07:08:14;0.98;;;0.98;;
38940;SDS011;43236;47.208;7.518;2023-12-14T07:11:01;1.13;;;1.02;;
38940;SDS011;43236;47.208;7.518;2023-12-14T07:13:49;0.80;;;0.80;;
38940;SDS011;43236;47.208;7.518;2023-12-14T07:16:36;2.05;;;1.73;;
38940;SDS011;43236;47.208;7.518;2023-12-14T07:19:23;1.60;;;1.50;;
38940;SDS011;43236;47.208;7.518;2023-12-14T07:22:10;2.42;;;1.60;;
38940;SDS011;43236;47.208;7.518;2023-12-14T07:24:58;1.95;;;1.75;;
38940;SDS011;43236;47.208;7.518;2023-12-14T07:27:45;2.75;;;2.08;;
38940;SDS011;43236;47.208;7.518;2023-12-14T07:30:32;5.05;;;2.78;;
38940;SDS011;43236;47.208;7.518;2023-12-14T07:33:19;2.75;;;1.90;;
38940;SDS011;43236;47.208;7.518;2023-12-14T07:36:07;2.03;;;1.58;;
38940;SDS011;43236;47.208;7.518;2023-12-14T07:38:54;1.52;;;1.33;;
38940;SDS011;43236;47.208;7.518;2023-12-14T07:41:42;3.67;;;1.65;;
38940;SDS011;43236;47.208;7.518;2023-12-14T07:44:29;2.80;;;1.70;;
38940;SDS011;43236;47.208;7.518;2023-12-14T07:47:16;2.35;;;1.90;;
38940;SDS011;43236;47.208;7.518;2023-12-14T07:50:04;2.33;;;1.60;;
38940;SDS011;43236;47.208;7.518;2023-12-14T07:52:52;1.88;;;1.67;;
38940;SDS011;43236;47.208;7.518;2023-12-14T07:55:39;2.90;;;1.85;;
38940;SDS011;43236;47.208;7.518;2023-12-14T07:58:28;3.38;;;2.40;;
38940;SDS011;43236;47.208;7.518;2023-12-14T08:01:15;2.92;;;2.53;;
38940;SDS011;43236;47.208;7.518;2023-12-14T08:04:02;9.07;;;2.95;;
38940;SDS011;43236;47.208;7.518;2023-12-14T08:06:50;2.72;;;2.50;;
38940;SDS011;43236;47.208;7.518;2023-12-14T08:09:37;2.95;;;2.47;;
38940;SDS011;43236;47.208;7.518;2023-12-14T08:12:24;2.42;;;2.08;;
38940;SDS011;43236;47.208;7.518;2023-12-14T08:15:12;2.22;;;2.03;;
38940;SDS011;43236;47.208;7.518;2023-12-14T08:18:00;1.63;;;1.50;;
38940;SDS011;43236;47.208;7.518;2023-12-14T08:20:46;3.75;;;2.10;;
38940;SDS011;43236;47.208;7.518;2023-12-14T08:23:40;2.95;;;2.05;;
38940;SDS011;43236;47.208;7.518;2023-12-14T08:26:27;3.00;;;2.53;;
38940;SDS011;43236;47.208;7.518;2023-12-14T08:29:14;3.15;;;2.08;;
38940;SDS011;43236;47.208;7.518;2023-12-14T08:32:03;4.65;;;2.75;;
38940;SDS011;43236;47.208;7.518;2023-12-14T08:34:50;2.97;;;2.13;;
38940;SDS011;43236;47.208;7.518;2023-12-14T08:37:38;6.88;;;3.33;;
38940;SDS011;43236;47.208;7.518;2023-12-14T08:40:25;3.92;;;2.78;;
38940;SDS011;43236;47.208;7.518;2023-12-14T08:43:12;3.50;;;2.60;;
38940;SDS011;43236;47.208;7.518;2023-12-14T08:45:59;5.13;;;2.10;;
38940;SDS011;43236;47.208;7.518;2023-12-14T08:48:47;3.53;;;2.45;;
38940;SDS011;43236;47.208;7.518;2023-12-14T08:51:35;2.38;;;2.05;;
38940;SDS011;43236;47.208;7.518;2023-12-14T08:54:22;4.82;;;3.22;;
38940;SDS011;43236;47.208;7.518;2023-12-14T08:57:10;3.05;;;2.60;;
38940;SDS011;43236;47.208;7.518;2023-12-14T08:59:57;4.80;;;2.90;;
38940;SDS011;43236;47.208;7.518;2023-12-14T09:02:44;4.20;;;2.85;;
38940;SDS011;43236;47.208;7.518;2023-12-14T09:05:33;4.38;;;2.65;;
38940;SDS011;43236;47.208;7.518;2023-12-14T09:08:20;4.97;;;2.75;;
38940;SDS011;43236;47.208;7.518;2023-12-14T09:11:07;3.05;;;1.92;;
38940;SDS011;43236;47.208;7.518;2023-12-14T09:13:54;2.50;;;2.30;;
38940;SDS011;43236;47.208;7.518;2023-12-14T09:16:41;3.03;;;2.38;;
38940;SDS011;43236;47.208;7.518;2023-12-14T09:19:29;7.38;;;2.88;;
38940;SDS011;43236;47.208;7.518;2023-12-14T09:22:17;3.95;;;2.22;;
38940;SDS011;43236;47.208;7.518;2023-12-14T09:25:05;4.75;;;2.47;;
38940;SDS011;43236;47.208;7.518;2023-12-14T09:27:54;2.72;;;2.05;;
38940;SDS011;43236;47.208;7.518;2023-12-14T09:30:41;2.75;;;2.47;;
38940;SDS011;43236;47.208;7.518;2023-12-14T09:33:29;7.38;;;2.80;;
38940;SDS011;43236;47.208;7.518;2023-12-14T09:36:16;3.67;;;2.03;;
38940;SDS011;43236;47.208;7.518;2023-12-14T09:39:05;2.22;;;2.00;;
38940;SDS011;43236;47.208;7.518;2023-12-14T09:42:01;2.67;;;1.65;;
38940;SDS011;43236;47.208;7.518;2023-12-14T09:44:49;2.17;;;1.88;;
38940;SDS011;43236;47.208;7.518;2023-12-14T09:47:38;1.92;;;1.67;;
38940;SDS011;43236;47.208;7.518;2023-12-14T09:50:26;2.95;;;2.35;;
38940;SDS011;43236;47.208;7.518;2023-12-14T09:53:14;2.42;;;1.92;;
38940;SDS011;43236;47.208;7.518;2023-12-14T09:56:02;6.80;;;2.38;;
38940;SDS011;43236;47.208;7.518;2023-12-14T09:58:50;2.80;;;2.60;;
38940;SDS011;43236;47.208;7.518;2023-12-14T10:01:37;3.35;;;2.67;;
38940;SDS011;43236;47.208;7.518;2023-12-14T10:04:24;3.17;;;2.17;;
38940;SDS011;43236;47.208;7.518;2023-12-14T10:07:12;5.43;;;3.55;;
38940;SDS011;43236;47.208;7.518;2023-12-14T10:10:09;5.50;;;2.60;;
38940;SDS011;43236;47.208;7.518;2023-12-14T10:12:59;6.00;;;3.28;;
38940;SDS011;43236;47.208;7.518;2023-12-14T10:15:47;4.78;;;2.88;;
38940;SDS011;43236;47.208;7.518;2023-12-14T10:18:35;3.35;;;2.50;;
38940;SDS011;43236;47.208;7.518;2023-12-14T10:21:22;3.28;;;2.25;;
38940;SDS011;43236;47.208;7.518;2023-12-14T10:24:09;2.13;;;1.83;;
38940;SDS011;43236;47.208;7.518;2023-12-14T10:26:56;2.70;;;2.50;;
38940;SDS011;43236;47.208;7.518;2023-12-14T10:29:44;2.88;;;2.20;;
38940;SDS011;43236;47.208;7.518;2023-12-14T10:32:32;3.20;;;2.55;;
38940;SDS011;43236;47.208;7.518;2023-12-14T10:35:20;2.92;;;2.47;;
38940;SDS011;43236;47.208;7.518;2023-12-14T10:38:08;3.28;;;1.77;;
38940;SDS011;43236;47.208;7.518;2023-12-14T10:40:56;1.80;;;1.70;;
38940;SDS011;43236;47.208;7.518;2023-12-14T10:43:44;3.45;;;1.77;;
38940;SDS011;43236;47.208;7.518;2023-12-14T10:46:34;2.25;;;1.80;;
38940;SDS011;43236;47.208;7.518;2023-12-14T10:49:21;2.00;;;1.50;;
38940;SDS011;43236;47.208;7.518;2023-12-14T10:52:09;1.83;;;1.67;;
38940;SDS011;43236;47.208;7.518;2023-12-14T10:54:58;2.30;;;1.73;;
38940;SDS011;43236;47.208;7.518;2023-12-14T10:57:48;2.70;;;1.70;;
38940;SDS011;43236;47.208;7.518;2023-12-14T11:00:38;2.83;;;2.30;;
38940;SDS011;43236;47.208;7.518;2023-12-14T11:03:27;2.05;;;1.60;;
38940;SDS011;43236;47.208;7.518;2023-12-14T11:06:20;2.22;;;2.03;;
38940;SDS011;43236;47.208;7.518;2023-12-14T11:09:16;2.97;;;2.13;;
38940;SDS011;43236;47.208;7.518;2023-12-14T11:12:04;2.22;;;1.80;;
38940;SDS011;43236;47.208;7.518;2023-12-14T11:14:54;2.72;;;1.63;;
38940;SDS011;43236;47.208;7.518;2023-12-14T11:17:41;2.88;;;2.10;;
38940;SDS011;43236;47.208;7.518;2023-12-14T11:20:29;2.60;;;2.05;;
38940;SDS011;43236;47.208;7.518;2023-12-14T11:23:26;1.63;;;1.40;;
38940;SDS011;43236;47.208;7.518;2023-12-14T11:26:20;2.65;;;1.65;;
38940;SDS011;43236;47.208;7.518;2023-12-14T11:29:08;2.22;;;1.58;;
38940;SDS011;43236;47.208;7.518;2023-12-14T11:31:55;1.75;;;1.63;;
38940;SDS011;43236;47.208;7.518;2023-12-14T11:34:45;4.05;;;3.38;;
38940;SDS011;43236;47.208;7.518;2023-12-14T11:37:33;2.60;;;2.35;;
38940;SDS011;43236;47.208;7.518;2023-12-14T11:40:21;2.03;;;1.83;;
38940;SDS011;43236;47.208;7.518;2023-12-14T11:43:09;2.20;;;1.55;;
38940;SDS011;43236;47.208;7.518;2023-12-14T11:45:56;1.48;;;1.38;;
38940;SDS011;43236;47.208;7.518;2023-12-14T11:48:44;1.10;;;1.00;;
38940;SDS011;43236;47.208;7.518;2023-12-14T11:51:32;1.52;;;1.05;;
38940;SDS011;43236;47.208;7.518;2023-12-14T11:54:21;1.20;;;1.10;;
38940;SDS011;43236;47.208;7.518;2023-12-14T11:57:08;1.98;;;1.05;;
38940;SDS011;43236;47.208;7.518;2023-12-14T11:59:57;1.60;;;1.50;;
38940;SDS011;43236;47.208;7.518;2023-12-14T12:02:45;1.17;;;1.08;;
38940;SDS011;43236;47.208;7.518;2023-12-14T12:05:35;0.65;;;0.65;;
38940;SDS011;43236;47.208;7.518;2023-12-14T12:08:24;0.63;;;0.60;;
38940;SDS011;43236;47.208;7.518;2023-12-14T12:11:16;0.90;;;0.70;;
38940;SDS011;43236;47.208;7.518;2023-12-14T12:14:04;0.60;;;0.60;;
38940;SDS011;43236;47.208;7.518;2023-12-14T12:16:51;0.75;;;0.75;;
38940;SDS011;43236;47.208;7.518;2023-12-14T12:19:38;0.82;;;0.80;;
38940;SDS011;43236;47.208;7.518;2023-12-14T12:22:28;0.95;;;0.80;;
38940;SDS011;43236;47.208;7.518;2023-12-14T12:25:15;1.55;;;0.70;;
38940;SDS011;43236;47.208;7.518;2023-12-14T12:28:03;0.80;;;0.80;;
38940;SDS011;43236;47.208;7.518;2023-12-14T12:30:50;0.98;;;0.98;;
38940;SDS011;43236;47.208;7.518;2023-12-14T12:33:38;0.85;;;0.80;;
38940;SDS011;43236;47.208;7.518;2023-12-14T12:36:25;0.82;;;0.80;;
38940;SDS011;43236;47.208;7.518;2023-12-14T12:39:12;0.85;;;0.82;;
38940;SDS011;43236;47.208;7.518;2023-12-14T12:41:59;0.90;;;0.90;;
38940;SDS011;43236;47.208;7.518;2023-12-14T12:44:47;1.38;;;1.05;;
38940;SDS011;43236;47.208;7.518;2023-12-14T12:47:34;1.15;;;1.10;;
38940;SDS011;43236;47.208;7.518;2023-12-14T12:50:21;0.80;;;0.80;;
38940;SDS011;43236;47.208;7.518;2023-12-14T12:53:08;1.00;;;0.75;;
38940;SDS011;43236;47.208;7.518;2023-12-14T12:55:55;1.10;;;0.98;;
38940;SDS011;43236;47.208;7.518;2023-12-14T12:58:42;0.52;;;0.52;;
38940;SDS011;43236;47.208;7.518;2023-12-14T13:01:31;2.15;;;1.20;;
38940;SDS011;43236;47.208;7.518;2023-12-14T13:04:18;2.13;;;1.65;;
38940;SDS011;43236;47.208;7.518;2023-12-14T13:07:06;0.95;;;0.88;;
38940;SDS011;43236;47.208;7.518;2023-12-14T13:09:53;0.85;;;0.85;;
38940;SDS011;43236;47.208;7.518;2023-12-14T13:12:40;1.65;;;1.20;;
38940;SDS011;43236;47.208;7.518;2023-12-14T13:15:27;0.80;;;0.80;;
38940;SDS011;43236;47.208;7.518;2023-12-14T13:18:17;0.75;;;0.75;;
38940;SDS011;43236;47.208;7.518;2023-12-14T13:21:04;1.05;;;0.80;;
38940;SDS011;43236;47.208;7.518;2023-12-14T13:23:51;1.38;;;1.13;;
38940;SDS011;43236;47.208;7.518;2023-12-14T13:26:39;2.60;;;1.42;;
38940;SDS011;43236;47.208;7.518;2023-12-14T13:29:26;1.20;;;0.98;;
38940;SDS011;43236;47.208;7.518;2023-12-14T13:32:13;3.70;;;1.48;;
38940;SDS011;43236;47.208;7.518;2023-12-14T13:35:02;0.85;;;0.80;;
38940;SDS011;43236;47.208;7.518;2023-12-14T13:37:49;0.88;;;0.88;;
38940;SDS011;43236;47.208;7.518;2023-12-14T13:40:36;0.85;;;0.82;;
38940;SDS011;43236;47.208;7.518;2023-12-14T13:43:23;1.25;;;1.00;;
38940;SDS011;43236;47.208;7.518;2023-12-14T13:46:10;2.90;;;1.40;;
38940;SDS011;43236;47.208;7.518;2023-12-14T13:48:57;0.73;;;0.73;;
38940;SDS011;43236;47.208;7.518;2023-12-14T13:51:45;1.42;;;1.23;;
38940;SDS011;43236;47.208;7.518;2023-12-14T13:54:32;3.13;;;1.20;;
38940;SDS011;43236;47.208;7.518;2023-12-14T13:57:21;1.08;;;0.93;;
38940;SDS011;43236;47.208;7.518;2023-12-14T14:00:09;2.63;;;1.52;;
38940;SDS011;43236;47.208;7.518;2023-12-14T14:02:57;1.80;;;1.30;;
38940;SDS011;43236;47.208;7.518;2023-12-14T14:05:43;1.73;;;1.30;;
38940;SDS011;43236;47.208;7.518;2023-12-14T14:08:32;2.10;;;1.20;;
38940;SDS011;43236;47.208;7.518;2023-12-14T14:11:19;1.10;;;1.05;;
38940;SDS011;43236;47.208;7.518;2023-12-14T14:14:06;1.02;;;1.02;;
38940;SDS011;43236;47.208;7.518;2023-12-14T14:16:53;1.73;;;1.20;;
38940;SDS011;43236;47.208;7.518;2023-12-14T14:19:40;0.88;;;0.82;;
38940;SDS011;43236;47.208;7.518;2023-12-14T14:22:27;1.88;;;1.05;;
38940;SDS011;43236;47.208;7.518;2023-12-14T14:25:16;1.10;;;1.05;;
38940;SDS011;43236;47.208;7.518;2023-12-14T14:28:03;2.30;;;1.55;;
38940;SDS011;43236;47.208;7.518;2023-12-14T14:30:50;1.98;;;1.20;;
38940;SDS011;43236;47.208;7.518;2023-12-14T14:33:38;1.33;;;1.23;;
38940;SDS011;43236;47.208;7.518;2023-12-14T14:36:25;1.05;;;0.98;;
38940;SDS011;43236;47.208;7.518;2023-12-14T14:39:12;2.10;;;1.23;;
38940;SDS011;43236;47.208;7.518;2023-12-14T14:42:00;2.67;;;1.35;;
38940;SDS011;43236;47.208;7.518;2023-12-14T14:44:47;1.85;;;1.30;;
38940;SDS011;43236;47.208;7.518;2023-12-14T14:47:34;0.63;;;0.63;;
38940;SDS011;43236;47.208;7.518;2023-12-14T14:50:21;2.90;;;1.45;;
38940;SDS011;43236;47.208;7.518;2023-12-14T14:53:08;2.55;;;1.33;;
38940;SDS011;43236;47.208;7.518;2023-12-14T14:55:55;3.67;;;1.83;;
38940;SDS011;43236;47.208;7.518;2023-12-14T14:58:43;1.08;;;0.98;;
38940;SDS011;43236;47.208;7.518;2023-12-14T15:01:31;3.25;;;1.98;;
38940;SDS011;43236;47.208;7.518;2023-12-14T15:04:18;4.32;;;2.00;;
38940;SDS011;43236;47.208;7.518;2023-12-14T15:07:05;2.08;;;1.80;;
38940;SDS011;43236;47.208;7.518;2023-12-14T15:09:52;2.95;;;1.90;;
38940;SDS011;43236;47.208;7.518;2023-12-14T15:12:39;2.00;;;1.50;;
38940;SDS011;43236;47.208;7.518;2023-12-14T15:15:27;1.45;;;1.25;;
38940;SDS011;43236;47.208;7.518;2023-12-14T15:18:14;3.00;;;1.80;;
38940;SDS011;43236;47.208;7.518;2023-12-14T15:21:01;1.45;;;0.88;;
38940;SDS011;43236;47.208;7.518;2023-12-14T15:23:49;1.70;;;0.90;;
38940;SDS011;43236;47.208;7.518;2023-12-14T15:26:36;1.30;;;1.20;;
38940;SDS011;43236;47.208;7.518;2023-12-14T15:29:23;1.20;;;1.08;;
38940;SDS011;43236;47.208;7.518;2023-12-14T15:32:12;1.80;;;1.35;;
38940;SDS011;43236;47.208;7.518;2023-12-14T15:34:59;3.75;;;1.05;;
38940;SDS011;43236;47.208;7.518;2023-12-14T15:37:46;1.50;;;1.33;;
38940;SDS011;43236;47.208;7.518;2023-12-14T15:40:33;1.48;;;1.38;;
38940;SDS011;43236;47.208;7.518;2023-12-14T15:43:23;2.05;;;1.40;;
38940;SDS011;43236;47.208;7.518;2023-12-14T15:46:10;0.80;;;0.80;;
38940;SDS011;43236;47.208;7.518;2023-12-14T15:48:59;1.45;;;1.35;;
38940;SDS011;43236;47.208;7.518;2023-12-14T15:51:47;1.27;;;1.17;;
38940;SDS011;43236;47.208;7.518;2023-12-14T15:54:34;1.13;;;1.05;;
38940;SDS011;43236;47.208;7.518;2023-12-14T15:57:21;3.90;;;1.52;;
38940;SDS011;43236;47.208;7.518;2023-12-14T16:00:08;1.35;;;1.25;;
38940;SDS011;43236;47.208;7.518;2023-12-14T16:02:56;3.33;;;1.30;;
38940;SDS011;43236;47.208;7.518;2023-12-14T16:05:44;1.58;;;1.13;;
38940;SDS011;43236;47.208;7.518;2023-12-14T16:08:31;1.40;;;0.98;;
38940;SDS011;43236;47.208;7.518;2023-12-14T16:11:18;1.23;;;1.08;;
38940;SDS011;43236;47.208;7.518;2023-12-14T16:14:05;1.92;;;1.10;;
38940;SDS011;43236;47.208;7.518;2023-12-14T16:16:52;2.05;;;1.30;;
38940;SDS011;43236;47.208;7.518;2023-12-14T16:19:39;1.83;;;1.30;;
38940;SDS011;43236;47.208;7.518;2023-12-14T16:22:28;1.00;;;0.90;;
38940;SDS011;43236;47.208;7.518;2023-12-14T16:25:15;1.50;;;1.20;;
38940;SDS011;43236;47.208;7.518;2023-12-14T16:28:02;1.10;;;1.00;;
38940;SDS011;43236;47.208;7.518;2023-12-14T16:30:49;2.15;;;1.60;;
38940;SDS011;43236;47.208;7.518;2023-12-14T16:33:36;4.82;;;2.55;;
38940;SDS011;43236;47.208;7.518;2023-12-14T16:36:24;9.27;;;6.57;;
38940;SDS011;43236;47.208;7.518;2023-12-14T16:39:12;9.43;;;6.00;;
38940;SDS011;43236;47.208;7.518;2023-12-14T16:41:59;9.88;;;4.65;;
38940;SDS011;43236;47.208;7.518;2023-12-14T16:44:46;5.80;;;4.13;;
38940;SDS011;43236;47.208;7.518;2023-12-14T16:47:33;4.75;;;3.00;;
38940;SDS011;43236;47.208;7.518;2023-12-14T16:50:20;5.38;;;3.38;;